Agua Caliente Hot Springs, CA

9:19 PM PDT on October 24, 2014 (GMT -0700)
Pinezanita RV Park & Campgrounds | Change Station
CLOSE
Current Station
Personal Weather Station
Location: Julian, CA
Elevation: 4698 ft
Nearby Weather Stations

Elev 4698 ft 33.04 °N, 116.56 °W | Updated 5 seconds ago

Clear
Clear
55.0 °F
Feels Like 55.0 °F
N
2.0
Wind Variable Wind from WNW
Gusts 2.0 mph

Today
High -- | Low -- °F
--% Chance of Precip.
Yesterday
High -- | Low -- °F
Precip. -- in
6:57 AM 6:02 PM
New Moon, 2% visible
Pressure 29.98 in
Visibility -9999.0 miles
Clouds
Dew Point 38 °F
Humidity 53%
Rainfall 0.00 in
Snow Depth Not available.
UV Not available.
Pollen 3.80 out of 12
Air Quality Not available.
Flu Activity Sporadic
METAR KCZZ 250352Z AUTO 06006KT 16/02 A3005 RMK AO1 SLP150 T01560022

More Conditions Fewer Conditions

Pressure 29.98 in
Visibility -9999.0 miles
Clouds
Dew Point 38 °F
Humidity 53%
Rainfall 0.00 in
Snow Depth Not available.
UV Not available.
Pollen 3.80 out of 12
Air Quality Not available.
Flu Activity Sporadic
METAR KCZZ 250352Z AUTO 06006KT 16/02 A3005 RMK AO1 SLP150 T01560022

More Conditions Fewer Conditions

10-Day Weather Forecast

Almanac

Astronomy

Oct. 24, 2014 Rise Set
Actual Time 6:57 AM PDT 6:02 PM PDT
Civil Twilight 6:32 AM PDT 6:27 PM PDT
Nautical Twilight 6:03 AM PDT 6:56 PM PDT
Astronomical Twilight 5:34 AM PDT 7:25 PM PDT
Moon 7:39 AM PDT (10/24) 6:48 PM PDT (10/24)
Length of Visible Light 11h 55m
Length of Day
11h 04m
Tomorrow will be 1m 52s shorter.
New Moon, 2% of the Moon is Illuminated
Oct 25
New Moon
Oct 30
First Quarter
Nov 6
Full
Nov 14
Last Quarter
Nov 22
New

Yesterday's Extremes

State Highs State Lows

Community

WunderPhotos

Upload Photos

1,764,779 photos uploaded!

Nearby

Snow Depth

Station Depth Elevation
Virginia Lakes Ridge 0 in 9200 ft
Leavitt Lake 1 in 9400 ft
Leavitt Meadows 1 in 7200 ft
Summit Meadow 1 in 9122 ft
Monitor Pass 0 in 8350 ft

Earthquake Activity

City Distance Mag. Time & Date
Maneadero, Mexico 104 miles 2.5 7:44 AM PDT
2014-10-24
San Felipe, Mexico 124 miles 3.0 11:00 PM PDT
2014-10-23
Brea, California 99 miles 2.9 3:35 PM PDT
2014-10-23
Brea, California 99 miles 2.8 3:34 PM PDT
2014-10-23
Minimum magnitude displayed is 2.5.

Coastal Water Temperatures

Place Temperature
No Stations Reporting

Nearby Weather Stations